Terminal Aerodrome Forecast
Issued by NWS Tulsa, OK

Home | Current Version | Previous Version | Text Only | Print | Product List | Glossary On
Versions: 1 2 3 4 5 6 7 8 9 10 11 12 13 14 15 16 17 18 19 20
867
FTUS44 KTSA 081735
TAFTUL
TAF
KTUL 081735Z 0818/0918 34011KT P6SM SCT200
     FM090000 35005KT P6SM FEW250
     FM091500 11006KT P6SM FEW080=

USA.gov is the U.S. government's official web portal to all federal, state and local government web resources and services.